Time;durP1;ratioP1;P1;durP2;ratioP2;P2;SDS_P1;SDS_P2;PMS_P1;PMS_P2;Temp;Humidity;BMP_temperature;BMP_pressure;BME280_temperature;BME280_humidity;BME280_pressure;Samples;Min_cycle;Max_cycle;Signal;HPM_P1;HPM_P2
2021/04/24 00:00:19;;;;;;;8.50;6.23;;;8.50;96.70;;;;;;5030142;28;20419;-74
2021/04/24 00:02:45;;;;;;;6.90;5.77;;;8.40;96.70;;;;;;5013918;28;20421;-74
2021/04/24 00:05:31;;;;;;;9.97;5.30;;;8.30;96.30;;;;;;5012029;28;21126;-74
2021/04/24 00:07:59;;;;;;;12.73;5.60;;;8.30;96.00;;;;;;5038635;28;20522;-74
2021/04/24 00:10:26;;;;;;;8.83;5.40;;;8.30;95.80;;;;;;5040919;28;20427;-74
2021/04/24 00:12:52;;;;;;;7.87;6.00;;;8.30;95.60;;;;;;5006260;28;20438;-74
2021/04/24 00:15:22;;;;;;;9.33;5.70;;;8.20;95.50;;;;;;5019588;28;20578;-74
2021/04/24 00:17:51;;;;;;;5.63;4.90;;;8.20;95.60;;;;;;5043957;28;20536;-75
2021/04/24 00:20:23;;;;;;;8.53;5.20;;;8.10;95.90;;;;;;5013859;28;20423;-74
2021/04/24 00:22:53;;;;;;;6.80;4.90;;;8.10;95.90;;;;;;5050551;28;21077;-74
2021/04/24 00:25:20;;;;;;;8.77;5.50;;;8.10;96.10;;;;;;5013290;28;20529;-74
2021/04/24 00:27:48;;;;;;;9.73;5.50;;;8.00;95.60;;;;;;5031752;28;20510;-75
2021/04/24 00:30:16;;;;;;;7.90;5.17;;;8.10;95.50;;;;;;5006994;28;20516;-75
2021/04/24 00:32:43;;;;;;;6.93;4.17;;;8.10;95.40;;;;;;5026106;28;21179;-75
2021/04/24 00:35:17;;;;;;;5.47;4.90;;;8.00;95.30;;;;;;5019582;28;20446;-74
2021/04/24 00:37:43;;;;;;;6.33;4.67;;;8.00;95.40;;;;;;5007298;28;20884;-74
2021/04/24 00:40:15;;;;;;;11.43;5.57;;;8.00;95.40;;;;;;5019452;28;20442;-75
2021/04/24 00:42:41;;;;;;;9.80;4.83;;;8.00;95.30;;;;;;5026771;28;20438;-74
2021/04/24 00:45:12;;;;;;;6.70;4.77;;;7.90;95.20;;;;;;4982279;28;20548;-74
2021/04/24 00:47:38;;;;;;;7.57;5.10;;;7.90;95.60;;;;;;5004750;28;20909;-74
2021/04/24 00:50:09;;;;;;;5.47;4.50;;;7.90;95.60;;;;;;5033781;28;20639;-74
2021/04/24 00:52:36;;;;;;;7.10;5.17;;;7.80;95.40;;;;;;4988073;28;20437;-74
2021/04/24 00:55:03;;;;;;;7.10;4.83;;;7.80;95.60;;;;;;5034793;28;20819;-74
2021/04/24 00:57:33;;;;;;;5.50;4.73;;;7.70;95.60;;;;;;5025997;28;20517;-74
2021/04/24 01:00:00;;;;;;;10.93;5.10;;;7.70;95.80;;;;;;4992580;28;20936;-74
2021/04/24 01:02:26;;;;;;;7.60;4.80;;;7.70;95.90;;;;;;5039429;28;20442;-75
2021/04/24 01:04:52;;;;;;;4.80;4.40;;;7.70;95.70;;;;;;5039037;28;20450;-74
2021/04/24 01:07:18;;;;;;;6.53;4.47;;;7.60;95.60;;;;;;5021119;28;20820;-74
2021/04/24 01:09:46;;;;;;;5.63;4.53;;;7.60;95.90;;;;;;5025127;28;20426;-74
2021/04/24 01:12:12;;;;;;;5.23;4.00;;;7.60;95.60;;;;;;5035437;28;20513;-74
2021/04/24 01:14:38;;;;;;;4.83;4.37;;;7.50;95.70;;;;;;5041085;28;21056;-74
2021/04/24 01:17:05;;;;;;;7.10;5.00;;;7.50;95.70;;;;;;5021757;28;20561;-74
2021/04/24 01:19:31;;;;;;;5.33;4.00;;;7.50;95.60;;;;;;5023145;28;20441;-74
2021/04/24 01:22:10;;;;;;;8.50;4.20;;;7.40;95.70;;;;;;5032538;28;20433;-74
2021/04/24 01:24:37;;;;;;;4.60;4.20;;;7.40;95.90;;;;;;4995175;28;20472;-74
2021/04/24 01:27:05;;;;;;;5.70;4.30;;;7.40;95.80;;;;;;5039055;28;20441;-74
2021/04/24 01:29:32;;;;;;;5.63;4.03;;;7.30;95.90;;;;;;5006790;28;20481;-74
2021/04/24 01:32:01;;;;;;;5.00;3.87;;;7.30;95.00;;;;;;5025267;28;20443;-74
2021/04/24 01:34:31;;;;;;;5.17;3.50;;;7.30;94.60;;;;;;5042728;28;21052;-75
2021/04/24 01:36:58;;;;;;;5.70;4.33;;;7.30;94.30;;;;;;5042179;28;20465;-74
2021/04/24 01:39:25;;;;;;;4.23;3.43;;;7.30;94.10;;;;;;5025940;28;20960;-74
2021/04/24 01:41:51;;;;;;;6.80;3.80;;;7.30;94.40;;;;;;5025745;28;20432;-74
2021/04/24 01:44:17;;;;;;;4.10;3.77;;;7.30;93.80;;;;;;5041600;28;20438;-74
2021/04/24 01:46:44;;;;;;;4.50;4.10;;;7.30;93.60;;;;;;5041368;28;20529;-74
2021/04/24 01:49:15;;;;;;;5.20;3.80;;;7.30;93.40;;;;;;5031412;28;20453;-74
2021/04/24 01:51:41;;;;;;;5.37;3.87;;;7.20;93.30;;;;;;5031130;28;20445;-74
2021/04/24 01:54:07;;;;;;;4.23;3.83;;;7.20;93.20;;;;;;5026553;28;20446;-74
2021/04/24 01:56:45;;;;;;;3.93;3.50;;;7.10;93.10;;;;;;5019338;28;20969;-74
2021/04/24 01:59:14;;;;;;;4.57;4.17;;;7.20;93.20;;;;;;5005087;28;20440;-74
2021/04/24 02:01:41;;;;;;;4.87;3.57;;;7.10;93.20;;;;;;5042775;28;20495;-74
2021/04/24 02:04:07;;;;;;;4.43;3.63;;;7.10;93.20;;;;;;5003969;28;20473;-74
2021/04/24 02:06:38;;;;;;;4.30;3.90;;;7.00;93.10;;;;;;5020488;28;20530;-74
2021/04/24 02:09:14;;;;;;;7.47;4.07;;;7.10;93.30;;;;;;5028388;28;20798;-74
2021/04/24 02:12:07;;;;;;;4.50;3.60;;;7.00;93.60;;;;;;5045166;28;20432;-74
2021/04/24 02:14:47;;;;;;;4.10;3.67;;;7.00;93.30;;;;;;5010240;28;20896;-74
2021/04/24 02:17:26;;;;;;;8.00;4.17;;;6.90;93.50;;;;;;5014476;28;20507;-74
2021/04/24 02:19:53;;;;;;;6.70;3.83;;;6.90;93.90;;;;;;4999706;28;20946;-74
2021/04/24 02:22:26;;;;;;;7.33;3.87;;;6.80;93.80;;;;;;5028050;28;20821;-74
2021/04/24 02:24:55;;;;;;;4.17;3.80;;;6.80;94.00;;;;;;5023668;28;20453;-74
2021/04/24 02:27:22;;;;;;;4.03;3.60;;;6.80;94.20;;;;;;5032142;28;20434;-74
2021/04/24 02:29:49;;;;;;;6.50;3.60;;;6.70;94.20;;;;;;5006359;28;20846;-74
2021/04/24 02:32:17;;;;;;;8.07;4.10;;;6.70;94.20;;;;;;5011837;28;20791;-74
2021/04/24 02:34:48;;;;;;;4.53;3.90;;;6.60;94.30;;;;;;5020602;28;21054;-74
2021/04/24 02:37:16;;;;;;;4.43;3.97;;;6.60;94.70;;;;;;5018160;28;20469;-74
2021/04/24 02:39:46;;;;;;;3.70;3.30;;;6.70;94.90;;;;;;5011314;28;20231;-74
2021/04/24 02:42:19;;;;;;;3.80;3.50;;;6.50;95.30;;;;;;5039369;28;20267;-74
2021/04/24 02:44:51;;;;;;;7.20;3.80;;;6.60;95.60;;;;;;5003473;28;20461;-74
2021/04/24 02:47:20;;;;;;;4.77;3.90;;;6.40;95.70;;;;;;5010929;28;20496;-75
2021/04/24 02:49:46;;;;;;;6.38;3.30;;;6.40;96.00;;;;;;5002431;28;20441;-74
2021/04/24 02:52:13;;;;;;;6.47;4.30;;;6.30;96.10;;;;;;5025925;28;20690;-74
2021/04/24 02:54:41;;;;;;;3.73;3.43;;;6.30;96.50;;;;;;5016993;28;21039;-74
2021/04/24 02:57:10;;;;;;;7.43;3.38;;;6.20;96.60;;;;;;5020792;28;20462;-74
2021/04/24 02:59:38;;;;;;;6.35;3.53;;;6.10;96.80;;;;;;5026105;28;20197;-74
2021/04/24 03:02:05;;;;;;;5.43;3.72;;;6.10;97.20;;;;;;5020491;28;20255;-74
2021/04/24 03:04:31;;;;;;;4.67;3.43;;;6.00;97.60;;;;;;5024339;28;20206;-74
2021/04/24 03:06:57;;;;;;;5.70;4.03;;;6.00;97.80;;;;;;5026386;28;20441;-74
2021/04/24 03:09:23;;;;;;;5.07;3.83;;;5.90;97.90;;;;;;5025265;28;20446;-73
2021/04/24 03:11:50;;;;;;;6.47;4.13;;;5.80;98.70;;;;;;5024113;28;20793;-74
2021/04/24 03:14:16;;;;;;;6.40;4.27;;;5.80;99.40;;;;;;5011652;28;20449;-74
2021/04/24 03:16:45;;;;;;;4.50;4.10;;;5.80;99.40;;;;;;5015873;28;20422;-73
2021/04/24 03:19:12;;;;;;;4.10;3.72;;;5.70;99.60;;;;;;5010607;28;20189;-74
2021/04/24 03:21:38;;;;;;;3.72;3.33;;;5.70;99.90;;;;;;5025527;28;20248;-74
2021/04/24 03:24:05;;;;;;;4.75;4.15;;;5.70;99.90;;;;;;5015363;28;20345;-74
2021/04/24 03:26:33;;;;;;;4.47;3.75;;;5.60;99.90;;;;;;5017635;28;20551;-74
2021/04/24 03:29:00;;;;;;;5.03;3.33;;;5.70;99.90;;;;;;5022985;28;20185;-74
2021/04/24 03:31:26;;;;;;;6.00;3.75;;;5.60;99.90;;;;;;5037555;28;20209;-74
2021/04/24 03:33:52;;;;;;;5.60;3.95;;;5.50;99.90;;;;;;5030033;28;20219;-74
2021/04/24 03:36:18;;;;;;;4.57;4.18;;;5.50;99.90;;;;;;5017446;28;20193;-75
2021/04/24 03:38:47;;;;;;;12.98;4.50;;;5.50;99.90;;;;;;5015982;28;20212;-74
2021/04/24 03:41:15;;;;;;;4.40;3.70;;;5.50;99.90;;;;;;5003120;28;20180;-74
2021/04/24 03:43:43;;;;;;;5.07;3.65;;;5.50;99.90;;;;;;5039140;28;20267;-74
2021/04/24 03:46:12;;;;;;;4.35;3.75;;;5.50;99.90;;;;;;5022066;28;20193;-74
2021/04/24 03:48:38;;;;;;;4.37;2.87;;;5.50;99.90;;;;;;5027968;28;20250;-74
2021/04/24 03:51:04;;;;;;;5.55;3.65;;;5.50;99.90;;;;;;5046020;28;20427;-74
2021/04/24 03:53:32;;;;;;;6.90;3.85;;;5.50;99.90;;;;;;5007108;28;20616;-73
2021/04/24 03:55:58;;;;;;;7.05;4.50;;;5.60;99.90;;;;;;5034961;28;20188;-74
2021/04/24 03:58:27;;;;;;;6.63;3.60;;;5.50;99.90;;;;;;5004977;28;20209;-74
2021/04/24 04:00:56;;;;;;;5.28;4.55;;;5.50;99.90;;;;;;5036212;28;20682;-74
2021/04/24 04:03:22;;;;;;;4.85;4.35;;;5.50;99.90;;;;;;5051468;28;20208;-74
2021/04/24 04:05:51;;;;;;;6.05;4.45;;;5.50;99.90;;;;;;5034670;28;20227;-73
2021/04/24 04:08:19;;;;;;;4.95;3.70;;;5.50;99.90;;;;;;5004416;28;20359;-73
2021/04/24 04:10:46;;;;;;;8.63;5.03;;;5.40;99.90;;;;;;5050428;28;20700;-74
2021/04/24 04:13:13;;;;;;;6.80;4.45;;;5.50;99.90;;;;;;5033493;28;20190;-74
2021/04/24 04:15:42;;;;;;;7.93;4.70;;;5.50;99.90;;;;;;5038296;28;20363;-75
2021/04/24 04:18:15;;;;;;;6.60;4.70;;;5.40;99.90;;;;;;5043968;28;20220;-74
2021/04/24 04:20:49;;;;;;;5.95;4.40;;;5.50;99.90;;;;;;5029464;28;20641;-74
2021/04/24 04:23:15;;;;;;;6.70;5.78;;;5.50;99.90;;;;;;5050160;28;20185;-74
2021/04/24 04:25:43;;;;;;;6.20;4.80;;;5.50;99.90;;;;;;5003204;28;20208;-74
2021/04/24 04:28:12;;;;;;;6.00;4.53;;;5.50;99.90;;;;;;5043623;28;20204;-74
2021/04/24 04:30:42;;;;;;;8.25;4.97;;;5.50;99.90;;;;;;5040151;28;20661;-74
2021/04/24 04:33:09;;;;;;;4.70;4.15;;;5.50;99.90;;;;;;5021762;28;20198;-74
2021/04/24 04:35:38;;;;;;;5.68;4.03;;;5.50;99.90;;;;;;5021633;28;20215;-74
2021/04/24 04:38:09;;;;;;;7.43;5.00;;;5.40;99.90;;;;;;5023293;28;20279;-74
2021/04/24 04:40:36;;;;;;;5.80;4.57;;;5.50;99.90;;;;;;4985719;28;20195;-74
2021/04/24 04:43:03;;;;;;;5.95;4.90;;;5.50;99.90;;;;;;5014224;28;20437;-73
2021/04/24 04:45:29;;;;;;;7.80;4.80;;;5.50;99.90;;;;;;5011685;28;20217;-74
2021/04/24 04:47:55;;;;;;;8.45;4.38;;;5.50;99.90;;;;;;5011398;28;20445;-74
2021/04/24 04:50:29;;;;;;;7.22;4.40;;;5.60;99.90;;;;;;5027096;28;20248;-74
2021/04/24 04:52:58;;;;;;;7.03;4.57;;;5.60;99.90;;;;;;5036755;28;20185;-74
2021/04/24 04:55:26;;;;;;;9.25;5.05;;;5.60;99.90;;;;;;5024850;28;20217;-74
2021/04/24 04:57:54;;;;;;;7.55;4.93;;;5.70;99.90;;;;;;5021776;28;20276;-74
2021/04/24 05:00:24;;;;;;;7.93;3.95;;;5.70;99.90;;;;;;5015402;28;20284;-74
2021/04/24 05:02:53;;;;;;;6.75;4.55;;;5.80;99.90;;;;;;5026766;28;20648;-74
2021/04/24 05:05:20;;;;;;;11.15;5.60;;;5.80;99.90;;;;;;5011894;28;20276;-74
2021/04/24 05:07:49;;;;;;;7.30;4.93;;;5.90;99.90;;;;;;5019275;28;20188;-75
2021/04/24 05:10:17;;;;;;;8.07;5.43;;;6.00;99.90;;;;;;5002258;28;20469;-74
2021/04/24 05:12:43;;;;;;;9.83;5.53;;;6.00;99.90;;;;;;5024692;28;20201;-74
2021/04/24 05:15:11;;;;;;;8.53;5.60;;;6.10;99.90;;;;;;5030814;28;20455;-74
2021/04/24 05:17:37;;;;;;;10.00;5.50;;;6.10;99.90;;;;;;5021764;28;20531;-74
2021/04/24 05:20:08;;;;;;;8.45;5.53;;;6.10;99.90;;;;;;5018708;28;20910;-74
2021/04/24 05:22:37;;;;;;;6.10;4.70;;;6.10;99.90;;;;;;4995247;28;20189;-74
2021/04/24 05:25:05;;;;;;;8.03;4.80;;;6.10;99.90;;;;;;5030404;28;20439;-74
2021/04/24 05:27:31;;;;;;;9.73;5.87;;;6.20;99.90;;;;;;4986188;28;20430;-74
2021/04/24 05:29:58;;;;;;;7.87;5.73;;;6.20;99.90;;;;;;5037131;28;20454;-74
2021/04/24 05:32:27;;;;;;;7.07;5.43;;;6.30;99.90;;;;;;5023440;28;20517;-74
2021/04/24 05:34:53;;;;;;;8.03;5.67;;;6.40;99.90;;;;;;5033807;28;20457;-74
2021/04/24 05:37:19;;;;;;;11.30;5.67;;;6.40;99.90;;;;;;5045822;28;20464;-74
2021/04/24 05:39:45;;;;;;;7.20;5.53;;;6.50;99.90;;;;;;5022042;28;20797;-73
2021/04/24 05:42:12;;;;;;;9.97;5.90;;;6.60;99.90;;;;;;5014690;28;20468;-74
2021/04/24 05:44:41;;;;;;;10.77;5.90;;;6.50;99.90;;;;;;5048831;28;20454;-74
2021/04/24 05:47:07;;;;;;;11.80;5.30;;;6.60;99.90;;;;;;5034135;28;21136;-74
2021/04/24 05:49:33;;;;;;;14.87;6.20;;;6.70;99.90;;;;;;5004520;28;20471;-74
2021/04/24 05:52:01;;;;;;;8.70;6.00;;;6.80;99.90;;;;;;5011830;28;20444;-74
2021/04/24 05:54:32;;;;;;;11.97;5.50;;;6.80;99.90;;;;;;5049953;28;20457;-75
2021/04/24 05:56:58;;;;;;;13.17;6.20;;;6.90;99.90;;;;;;5030643;28;20436;-75
2021/04/24 05:59:24;;;;;;;8.03;5.77;;;6.90;99.90;;;;;;5025881;28;20960;-74
2021/04/24 06:01:55;;;;;;;8.10;5.80;;;7.00;99.90;;;;;;5050547;28;20430;-74
2021/04/24 06:04:21;;;;;;;9.63;6.87;;;7.10;99.90;;;;;;5041416;28;20525;-74
2021/04/24 06:06:49;;;;;;;10.13;6.07;;;7.20;99.90;;;;;;5033534;28;20568;-74
2021/04/24 06:09:15;;;;;;;7.43;5.67;;;7.30;99.90;;;;;;5032852;28;20438;-74
2021/04/24 06:11:41;;;;;;;9.27;4.63;;;7.40;99.90;;;;;;5046538;28;20951;-73
2021/04/24 06:14:09;;;;;;;7.60;6.40;;;7.50;99.90;;;;;;4998209;28;20449;-74
2021/04/24 06:16:35;;;;;;;14.33;6.73;;;7.50;99.90;;;;;;5036323;28;20846;-74
2021/04/24 06:19:01;;;;;;;12.20;5.90;;;7.60;99.90;;;;;;4998075;28;20486;-74
2021/04/24 06:21:27;;;;;;;10.70;7.63;;;7.60;99.90;;;;;;4982834;28;20441;-74
2021/04/24 06:23:56;;;;;;;9.70;6.70;;;7.70;99.50;;;;;;5032262;28;20546;-74
2021/04/24 06:26:22;;;;;;;11.63;6.77;;;7.80;99.50;;;;;;5012333;28;20524;-74
2021/04/24 06:28:48;;;;;;;9.70;6.10;;;7.90;99.60;;;;;;5014411;28;20509;-74
2021/04/24 06:31:16;;;;;;;10.40;5.93;;;8.00;99.20;;;;;;5003608;28;20440;-74
2021/04/24 06:33:42;;;;;;;7.43;5.00;;;8.00;98.90;;;;;;5046709;28;20444;-74
2021/04/24 06:36:11;;;;;;;7.43;6.60;;;8.10;99.30;;;;;;5043032;28;20976;-74
2021/04/24 06:38:38;;;;;;;9.23;5.87;;;8.10;99.40;;;;;;5038907;28;20548;-74
2021/04/24 06:41:04;;;;;;;7.63;6.50;;;8.20;99.40;;;;;;5003361;28;20439;-74
2021/04/24 06:43:30;;;;;;;12.17;6.03;;;8.20;99.70;;;;;;4998891;28;20477;-74
2021/04/24 06:45:56;;;;;;;11.23;6.40;;;8.30;99.90;;;;;;5022972;28;20923;-74
2021/04/24 06:48:22;;;;;;;11.73;5.60;;;8.40;99.90;;;;;;5030868;28;20483;-74
2021/04/24 06:50:48;;;;;;;7.70;6.47;;;8.40;99.90;;;;;;5014612;28;20434;-74
2021/04/24 06:53:15;;;;;;;9.07;5.90;;;8.50;99.90;;;;;;5031515;28;20433;-74
2021/04/24 06:55:41;;;;;;;13.40;5.70;;;8.70;99.90;;;;;;5007032;28;21287;-74
2021/04/24 06:58:07;;;;;;;13.00;5.63;;;8.80;99.90;;;;;;5023855;28;20473;-74
2021/04/24 07:00:37;;;;;;;10.70;5.80;;;8.80;99.90;;;;;;5003787;28;20419;-74
2021/04/24 07:03:08;;;;;;;15.13;8.27;;;8.90;99.90;;;;;;5032409;28;20429;-74
2021/04/24 07:05:37;;;;;;;7.73;6.30;;;8.80;99.90;;;;;;5031611;28;20418;-74
2021/04/24 07:08:03;;;;;;;10.40;6.70;;;8.90;99.90;;;;;;5035034;28;20961;-74
2021/04/24 07:10:32;;;;;;;8.60;5.50;;;8.90;99.90;;;;;;5024907;28;20422;-74
2021/04/24 07:13:00;;;;;;;6.77;5.00;;;8.90;99.90;;;;;;5027240;28;20449;-74
2021/04/24 07:15:26;;;;;;;7.20;5.87;;;8.90;99.90;;;;;;5036035;28;20454;-74
2021/04/24 07:17:54;;;;;;;10.33;6.73;;;8.90;99.90;;;;;;5030063;28;20474;-74
2021/04/24 07:20:21;;;;;;;13.63;6.73;;;8.90;99.90;;;;;;5014905;28;20767;-73
2021/04/24 07:22:47;;;;;;;9.40;5.90;;;9.00;99.90;;;;;;5017982;28;20439;-74
2021/04/24 07:25:14;;;;;;;9.20;6.37;;;9.10;99.90;;;;;;5036934;28;20451;-74
2021/04/24 07:27:42;;;;;;;12.40;6.37;;;9.20;99.90;;;;;;5013142;28;20568;-74
2021/04/24 07:30:10;;;;;;;10.67;6.03;;;9.40;99.90;;;;;;5036579;28;20475;-74
2021/04/24 07:32:41;;;;;;;6.57;5.57;;;9.50;99.70;;;;;;5031265;28;20534;-74
2021/04/24 07:35:08;;;;;;;10.27;6.30;;;9.60;99.60;;;;;;5023738;28;20444;-74
2021/04/24 07:37:35;;;;;;;7.23;6.50;;;9.60;98.50;;;;;;5017763;28;20565;-74
2021/04/24 07:40:01;;;;;;;8.93;7.00;;;9.60;99.40;;;;;;5013943;28;20428;-74
2021/04/24 07:42:29;;;;;;;9.80;6.30;;;9.70;98.80;;;;;;5033513;28;20801;-74
2021/04/24 07:44:55;;;;;;;10.77;7.40;;;9.80;98.50;;;;;;5032365;28;20455;-74
2021/04/24 07:47:21;;;;;;;9.40;6.33;;;10.00;97.90;;;;;;5032666;28;20525;-74
2021/04/24 07:49:47;;;;;;;7.97;6.13;;;10.10;97.50;;;;;;4997521;28;20428;-73
2021/04/24 07:52:14;;;;;;;9.80;6.70;;;10.10;96.80;;;;;;5010443;28;20455;-74
2021/04/24 07:54:43;;;;;;;9.67;7.30;;;10.20;96.40;;;;;;5023531;28;20455;-74
2021/04/24 07:57:14;;;;;;;11.87;7.80;;;10.20;95.90;;;;;;5006588;28;20471;-74
2021/04/24 07:59:44;;;;;;;14.27;7.97;;;10.00;96.20;;;;;;5027135;28;21014;-74
2021/04/24 08:02:14;;;;;;;9.83;7.20;;;9.90;96.80;;;;;;5026034;28;20432;-74
2021/04/24 08:04:43;;;;;;;6.43;5.20;;;9.80;97.20;;;;;;5023620;28;20447;-73
2021/04/24 08:07:10;;;;;;;7.83;6.00;;;9.60;96.20;;;;;;5026592;28;20915;-73
2021/04/24 08:09:51;;;;;;;8.60;6.00;;;9.60;97.00;;;;;;5012343;28;20490;-74
2021/04/24 08:12:17;;;;;;;8.87;8.10;;;9.70;97.00;;;;;;5019577;28;20434;-74
2021/04/24 08:14:48;;;;;;;7.27;6.10;;;9.70;96.00;;;;;;5008638;28;20502;-74
2021/04/24 08:17:14;;;;;;;6.40;5.80;;;9.70;96.40;;;;;;5019343;28;21124;-74
2021/04/24 08:19:41;;;;;;;6.73;5.27;;;9.80;95.30;;;;;;4991016;28;20497;-74
2021/04/24 08:22:10;;;;;;;8.30;5.13;;;10.00;94.80;;;;;;5009303;28;20432;-74
2021/04/24 08:24:37;;;;;;;6.27;3.80;;;10.20;94.00;;;;;;5008976;28;20449;-74
2021/04/24 08:27:03;;;;;;;4.97;4.43;;;10.30;93.50;;;;;;5015064;28;20429;-74
2021/04/24 08:29:31;;;;;;;6.33;5.43;;;10.40;92.90;;;;;;5010740;28;20487;-74
2021/04/24 08:31:58;;;;;;;6.20;5.37;;;10.40;92.60;;;;;;5015233;28;20911;-75
2021/04/24 08:34:26;;;;;;;8.47;6.00;;;10.70;92.20;;;;;;5028806;28;20490;-73
2021/04/24 08:36:53;;;;;;;5.93;5.33;;;10.90;91.80;;;;;;5022655;28;20964;-74
2021/04/24 08:39:19;;;;;;;6.87;5.77;;;11.00;91.20;;;;;;5024227;28;20946;-74
2021/04/24 08:41:46;;;;;;;6.73;5.50;;;11.10;90.70;;;;;;5010305;28;20476;-74
2021/04/24 08:44:17;;;;;;;6.70;4.90;;;11.20;89.70;;;;;;5014418;28;20464;-74
2021/04/24 08:46:48;;;;;;;5.33;4.90;;;11.30;89.20;;;;;;5016785;28;20454;-74
2021/04/24 08:49:17;;;;;;;5.30;4.33;;;11.30;87.00;;;;;;5006291;28;20503;-74
2021/04/24 08:51:44;;;;;;;6.33;5.00;;;11.30;87.50;;;;;;5001187;28;20808;-74
2021/04/24 08:54:10;;;;;;;5.60;5.07;;;11.30;86.60;;;;;;5010287;28;20969;-74
2021/04/24 08:56:37;;;;;;;7.73;4.70;;;11.40;86.10;;;;;;5026711;28;20451;-74
2021/04/24 08:59:03;;;;;;;6.60;4.50;;;11.40;83.50;;;;;;5010609;28;20535;-74
2021/04/24 09:01:31;;;;;;;6.50;5.43;;;11.30;84.60;;;;;;4999217;28;20769;-74
2021/04/24 09:04:04;;;;;;;8.23;5.97;;;11.40;85.70;;;;;;5014487;28;20444;-73
2021/04/24 09:06:33;;;;;;;5.90;5.40;;;11.70;84.40;;;;;;4985650;28;20477;-74
2021/04/24 09:09:10;;;;;;;5.50;5.10;;;11.80;85.40;;;;;;5019050;28;20457;-74
2021/04/24 09:11:44;;;;;;;5.33;4.80;;;12.00;85.00;;;;;;4999749;28;20975;-74
2021/04/24 09:14:16;;;;;;;6.27;5.67;;;12.00;79.60;;;;;;5023860;28;20466;-74
2021/04/24 09:16:44;;;;;;;5.40;4.90;;;11.90;81.00;;;;;;5027986;28;21015;-74
2021/04/24 09:19:34;;;;;;;5.60;4.40;;;12.20;82.50;;;;;;5029620;28;20562;-73
2021/04/24 09:22:25;;;;;;;10.47;5.90;;;12.50;82.30;;;;;;5024935;28;20418;-74
2021/04/24 09:24:54;;;;;;;5.50;5.10;;;12.50;78.90;;;;;;5025473;28;20857;-73
2021/04/24 09:27:47;;;;;;;8.40;5.33;;;12.70;80.90;;;;;;5002903;28;20469;-74
2021/04/24 09:30:24;;;;;;;5.90;5.30;;;13.00;81.00;;;;;;5036094;28;21288;-73
2021/04/24 09:32:50;;;;;;;9.67;5.33;;;13.20;76.50;;;;;;5029712;28;20428;-74
2021/04/24 09:35:22;;;;;;;5.90;5.40;;;13.30;75.10;;;;;;5035796;28;20955;-73
2021/04/24 09:37:59;;;;;;;6.43;5.47;;;13.50;78.00;;;;;;5021699;28;20476;-73
2021/04/24 09:40:38;;;;;;;7.23;4.90;;;13.70;76.90;;;;;;5083451;28;20562;-72
2021/04/24 09:43:07;;;;;;;8.00;4.87;;;13.90;76.50;;;;;;5071552;28;20418;-72
2021/04/24 09:45:42;;;;;;;6.40;5.30;;;14.10;75.80;;;;;;5057257;28;20987;-73
2021/04/24 09:48:28;;;;;;;6.73;5.30;;;14.40;76.00;;;;;;5047633;28;20513;-72
2021/04/24 09:50:54;;;;;;;5.70;5.20;;;14.40;72.90;;;;;;5040650;28;20463;-72
2021/04/24 09:53:25;;;;;;;6.33;5.70;;;14.50;73.50;;;;;;5030912;28;20443;-73
2021/04/24 09:55:54;;;;;;;5.40;4.20;;;14.40;72.40;;;;;;5031588;28;20529;-72
2021/04/24 09:58:35;;;;;;;4.70;4.07;;;14.50;71.40;;;;;;5061161;28;20909;-72
2021/04/24 10:01:27;;;;;;;7.00;4.90;;;14.50;69.10;;;;;;5030492;28;20469;-72
2021/04/24 10:03:54;;;;;;;6.20;5.47;;;14.30;69.70;;;;;;5038436;28;20460;-72
2021/04/24 10:06:31;;;;;;;6.60;5.17;;;14.30;69.70;;;;;;5052188;28;20425;-72
2021/04/24 10:09:10;;;;;;;5.50;5.00;;;14.50;70.10;;;;;;5043091;28;20470;-72
2021/04/24 10:11:37;;;;;;;13.53;5.67;;;14.50;70.00;;;;;;5057897;28;20435;-71
2021/04/24 10:14:04;;;;;;;5.37;4.10;;;14.50;67.60;;;;;;5059430;28;20439;-71
2021/04/24 10:16:44;;;;;;;5.80;4.63;;;14.50;66.40;;;;;;5058149;28;20942;-71
2021/04/24 10:19:13;;;;;;;6.63;4.90;;;14.30;65.70;;;;;;5064319;28;20473;-73
2021/04/24 10:21:43;;;;;;;5.30;4.90;;;14.40;66.50;;;;;;5053079;28;20497;-77
2021/04/24 10:24:11;;;;;;;6.57;5.97;;;14.60;67.60;;;;;;5053909;28;20814;-73
2021/04/24 10:26:40;;;;;;;6.03;5.10;;;14.70;67.70;;;;;;5050414;28;20795;-75
2021/04/24 10:29:07;;;;;;;8.53;5.17;;;14.90;66.50;;;;;;5051922;28;20432;-75
2021/04/24 10:31:34;;;;;;;6.70;5.50;;;14.80;66.10;;;;;;5044248;28;20467;-76
2021/04/24 10:34:01;;;;;;;6.00;5.40;;;14.80;66.50;;;;;;5048200;28;20447;-74
2021/04/24 10:36:28;;;;;;;4.87;4.30;;;14.90;65.90;;;;;;5043559;28;20543;-76
2021/04/24 10:38:56;;;;;;;6.87;4.60;;;15.10;65.30;;;;;;5053746;28;20480;-75
2021/04/24 10:41:58;;;;;;;7.63;4.70;;;15.10;63.80;;;;;;5054686;28;20426;-75
2021/04/24 10:44:42;;;;;;;5.77;5.27;;;15.40;67.80;;;;;;5047118;28;20472;-75
2021/04/24 10:47:10;;;;;;;6.43;5.83;;;15.50;65.70;;;;;;5038895;28;20432;-74
2021/04/24 10:49:55;;;;;;;5.80;5.30;;;15.30;66.30;;;;;;5052904;28;21158;-73
2021/04/24 10:52:23;;;;;;;4.57;3.90;;;15.40;64.80;;;;;;5040730;28;20427;-74
2021/04/24 10:55:11;;;;;;;4.83;4.37;;;15.70;65.00;;;;;;5033576;28;20447;-80
2021/04/24 10:57:40;;;;;;;5.97;5.40;;;15.70;62.60;;;;;;5039998;28;20481;-77
2021/04/24 11:00:17;;;;;;;5.23;4.40;;;15.60;59.80;;;;;;5043929;28;20459;-80
2021/04/24 11:02:51;;;;;;;5.07;4.57;;;15.60;60.10;;;;;;5044414;28;20439;-79
2021/04/24 11:05:30;;;;;;;8.00;5.30;;;15.70;61.90;;;;;;5042541;28;20467;-79
2021/04/24 11:08:15;;;;;;;8.03;5.10;;;15.90;60.30;;;;;;5043317;28;20850;-78
2021/04/24 11:10:44;;;;;;;6.77;5.40;;;16.00;60.10;;;;;;5021032;28;21000;-76
2021/04/24 11:13:17;;;;;;;5.93;5.43;;;16.00;60.90;;;;;;5032324;28;20428;-75
2021/04/24 11:15:44;;;;;;;7.37;4.70;;;16.00;62.10;;;;;;5033382;28;21099;-74
2021/04/24 11:18:14;;;;;;;5.17;4.67;;;16.20;59.50;;;;;;5040345;28;20419;-77
2021/04/24 11:21:24;;;;;;;5.63;5.13;;;16.20;59.40;;;;;;5051767;28;20526;-75
2021/04/24 11:24:15;;;;;;;6.17;5.50;;;16.30;59.90;;;;;;5015807;28;20457;-75
2021/04/24 11:26:40;;;;;;;4.87;4.13;;;16.50;59.10;;;;;;5033880;28;20431;-73
2021/04/24 11:29:21;;;;;;;6.27;3.90;;;16.40;58.90;;;;;;5046638;28;20430;-72
2021/04/24 11:32:07;;;;;;;4.67;4.27;;;16.40;57.00;;;;;;5038139;28;20560;-72
2021/04/24 11:34:35;;;;;;;6.20;4.00;;;16.20;56.60;;;;;;5044312;28;20457;-75
2021/04/24 11:37:31;;;;;;;5.10;4.60;;;16.10;54.50;;;;;;5045246;28;20924;-72
2021/04/24 11:40:09;;;;;;;6.13;4.50;;;15.90;55.90;;;;;;5037024;28;20889;-71
2021/04/24 11:42:51;;;;;;;5.50;5.10;;;15.70;56.30;;;;;;5029849;28;20502;-78
2021/04/24 11:46:01;;;;;;;5.00;4.60;;;15.90;57.00;;;;;;5052496;28;20448;-79
2021/04/24 11:48:47;;;;;;;5.27;4.33;;;16.30;56.80;;;;;;5028431;28;20434;-77
2021/04/24 11:51:29;;;;;;;5.10;4.70;;;17.10;56.20;;;;;;5022665;28;20521;-75
2021/04/24 11:53:56;;;;;;;5.03;4.30;;;17.70;55.70;;;;;;5034506;28;20540;-76
2021/04/24 11:56:22;;;;;;;10.33;5.10;;;17.90;53.70;;;;;;5042696;28;20421;-73
2021/04/24 11:58:49;;;;;;;4.70;4.30;;;18.10;53.40;;;;;;5020680;28;21245;-71
2021/04/24 12:01:22;;;;;;;5.70;5.20;;;18.30;52.80;;;;;;5038751;28;20767;-75
2021/04/24 12:03:52;;;;;;;6.20;5.00;;;18.30;52.10;;;;;;5029889;28;20971;-76
2021/04/24 12:06:38;;;;;;;6.17;5.57;;;18.20;50.50;;;;;;5037639;28;20490;-76
2021/04/24 12:09:08;;;;;;;4.10;3.80;;;17.70;51.40;;;;;;5032989;28;20508;-75
2021/04/24 12:11:34;;;;;;;5.87;5.37;;;17.90;52.90;;;;;;5035872;28;20440;-74
2021/04/24 12:14:00;;;;;;;8.10;5.70;;;17.60;51.00;;;;;;5038968;28;20510;-73
2021/04/24 12:16:41;;;;;;;5.10;4.70;;;17.50;51.30;;;;;;5039904;28;20440;-78
2021/04/24 12:19:26;;;;;;;4.93;4.53;;;17.40;52.90;;;;;;5039072;28;20843;-78
2021/04/24 12:22:08;;;;;;;5.37;4.70;;;17.50;52.90;;;;;;5025506;28;20457;-73
2021/04/24 12:24:48;;;;;;;6.13;5.10;;;17.70;52.50;;;;;;5043044;22;20573;-77
2021/04/24 12:27:31;;;;;;;6.90;6.40;;;18.00;53.10;;;;;;4971772;28;20486;-75
2021/04/24 12:29:58;;;;;;;6.53;5.83;;;18.40;50.60;;;;;;4983185;28;20443;-76
2021/04/24 12:32:32;;;;;;;6.13;5.53;;;18.60;49.70;;;;;;4985211;28;20515;-75
2021/04/24 12:35:17;;;;;;;6.07;5.53;;;18.80;48.50;;;;;;4981565;28;21067;-76
2021/04/24 12:37:45;;;;;;;7.63;5.80;;;18.60;49.30;;;;;;4978086;28;20930;-75
2021/04/24 12:40:15;;;;;;;6.07;5.47;;;18.30;49.40;;;;;;4952121;28;20469;-77
2021/04/24 12:42:44;;;;;;;5.80;5.20;;;18.10;49.80;;;;;;4989711;28;20796;-76
2021/04/24 12:45:16;;;;;;;6.60;5.87;;;18.00;51.50;;;;;;4985826;28;20474;-76
2021/04/24 12:47:44;;;;;;;6.50;4.90;;;17.90;50.10;;;;;;4973133;28;20439;-76
2021/04/24 12:50:17;;;;;;;9.67;6.07;;;17.80;50.60;;;;;;4973691;28;20437;-76
2021/04/24 12:52:45;;;;;;;6.80;5.40;;;18.00;51.00;;;;;;4989913;28;20473;-77
2021/04/24 12:55:13;;;;;;;6.70;5.30;;;18.00;50.30;;;;;;4974368;28;20453;-75
2021/04/24 12:57:52;;;;;;;5.40;4.90;;;18.20;50.80;;;;;;4957393;28;20439;-76
2021/04/24 13:00:47;;;;;;;9.33;7.00;;;18.10;49.50;;;;;;4973438;28;20503;-76
2021/04/24 13:03:24;;;;;;;6.83;6.13;;;18.20;50.00;;;;;;4985080;28;20927;-76
2021/04/24 13:05:50;;;;;;;7.93;5.50;;;18.20;51.00;;;;;;5000165;28;20491;-76
2021/04/24 13:08:19;;;;;;;6.17;5.40;;;18.00;50.70;;;;;;4992609;28;20428;-76